createdAt,value
2022-08-01T00:01:15.484Z,21.07
2022-08-01T00:13:15.929Z,21.24
2022-08-01T00:25:16.399Z,21.20
2022-08-01T00:37:16.826Z,20.87
2022-08-01T00:49:17.377Z,21.01
2022-08-01T01:01:17.783Z,20.95
2022-08-01T01:13:18.157Z,21.20
2022-08-01T01:25:18.631Z,20.83
2022-08-01T01:37:19.130Z,21.03
2022-08-01T01:49:19.625Z,20.20
2022-08-01T02:01:58.897Z,20.81
2022-08-01T02:13:21.341Z,20.74
2022-08-01T02:25:20.924Z,19.85
2022-08-01T02:37:21.384Z,19.85
2022-08-01T02:49:21.912Z,19.30
2022-08-01T03:01:22.361Z,19.86
2022-08-01T03:13:22.745Z,19.09
2022-08-01T03:25:23.207Z,20.60
2022-08-01T03:37:23.643Z,20.90
2022-08-01T03:49:24.159Z,21.31
2022-08-01T04:01:24.622Z,21.11
2022-08-01T04:13:25.014Z,21.59
2022-08-01T04:25:25.472Z,21.16
2022-08-01T04:37:25.914Z,21.73
2022-08-01T04:49:26.523Z,20.91
2022-08-01T05:01:26.869Z,20.49
2022-08-01T05:13:27.316Z,21.67
2022-08-01T05:25:52.399Z,21.33
2022-08-01T05:37:28.211Z,21.57
2022-08-01T05:49:28.707Z,21.83
2022-08-01T06:01:29.064Z,21.81
2022-08-01T06:13:29.548Z,22.94
2022-08-01T06:25:30.033Z,23.48
2022-08-01T06:37:30.475Z,24.63
2022-08-01T06:49:30.965Z,25.26
2022-08-01T07:01:35.086Z,25.17
2022-08-01T07:13:36.739Z,25.24
2022-08-01T07:25:32.248Z,25.26
2022-08-01T07:37:47.166Z,25.83
2022-08-01T07:49:39.124Z,25.32
2022-08-01T08:01:33.733Z,26.44
2022-08-01T08:13:34.102Z,26.60
2022-08-01T08:25:34.578Z,27.18
2022-08-01T08:37:38.939Z,28.31
2022-08-01T08:49:36.483Z,29.13
2022-08-01T09:01:35.942Z,28.29
2022-08-01T09:13:36.379Z,29.29
2022-08-01T09:25:47.715Z,31.25
2022-08-01T09:37:37.733Z,32.12
2022-08-01T09:49:50.665Z,33.38
2022-08-01T10:01:38.706Z,33.54
2022-08-01T10:13:38.629Z,31.75
2022-08-01T10:25:43.107Z,32.75
2022-08-01T10:37:52.063Z,34.30
2022-08-01T10:49:40.030Z,34.22
2022-08-01T11:01:40.702Z,33.54
2022-08-01T11:13:40.972Z,35.46
2022-08-01T11:26:05.678Z,34.10
2022-08-01T11:37:41.811Z,34.62
2022-08-01T11:49:43.469Z,33.24
2022-08-01T12:01:42.781Z,33.04
2022-08-01T12:13:43.227Z,32.46
2022-08-01T12:25:43.663Z,30.89
2022-08-01T12:37:44.166Z,33.08
2022-08-01T12:49:44.641Z,31.90
2022-08-01T13:01:45.113Z,33.50
2022-08-01T13:13:45.503Z,31.15
2022-08-01T13:25:45.953Z,32.37
2022-08-01T13:37:46.452Z,35.27
2022-08-01T13:49:46.965Z,34.12
2022-08-01T14:01:47.500Z,32.17
2022-08-01T14:13:47.782Z,32.25
2022-08-01T14:26:03.045Z,30.24
2022-08-01T14:37:48.726Z,30.18
2022-08-01T14:49:49.187Z,30.90
2022-08-01T15:01:49.623Z,31.43
2022-08-01T15:13:50.117Z,30.82
2022-08-01T15:25:50.505Z,33.37
2022-08-01T15:37:50.991Z,33.23
2022-08-01T15:49:52.565Z,31.48
2022-08-01T16:01:52.005Z,31.08
2022-08-01T16:13:52.357Z,34.29
2022-08-01T16:25:52.833Z,31.81
2022-08-01T16:37:53.267Z,34.42
2022-08-01T16:49:53.735Z,33.78
2022-08-01T17:02:01.519Z,31.89
2022-08-01T17:13:54.659Z,30.08
2022-08-01T17:25:55.089Z,29.38
2022-08-01T17:37:55.595Z,28.74
2022-08-01T17:49:56.154Z,28.25
2022-08-01T18:01:56.530Z,28.39
2022-08-01T18:13:56.947Z,28.05
2022-08-01T18:25:57.417Z,27.32
2022-08-01T18:37:57.842Z,26.80
2022-08-01T18:49:58.322Z,26.04
2022-08-01T19:01:58.748Z,25.43
2022-08-01T19:13:59.246Z,25.46
2022-08-01T19:25:59.648Z,26.17
2022-08-01T19:38:00.111Z,25.69
2022-08-01T19:50:00.555Z,25.18
2022-08-01T20:02:01.077Z,24.87
2022-08-01T20:14:01.489Z,24.94
2022-08-01T20:26:01.940Z,24.81
2022-08-01T20:38:05.472Z,24.65
2022-08-01T20:50:02.905Z,24.30
2022-08-01T21:02:03.311Z,24.61
2022-08-01T21:14:03.772Z,24.46
2022-08-01T21:26:04.181Z,24.15
2022-08-01T21:38:04.691Z,23.64
2022-08-01T21:50:05.125Z,24.27
2022-08-01T22:02:05.602Z,24.15
2022-08-01T22:14:06.055Z,23.88
2022-08-01T22:26:06.509Z,23.77
2022-08-01T22:38:06.955Z,23.18
2022-08-01T22:50:07.405Z,23.21
2022-08-01T23:02:08.126Z,23.20
2022-08-01T23:14:08.319Z,22.79
2022-08-01T23:26:08.781Z,21.48
2022-08-01T23:38:09.213Z,21.51
2022-08-01T23:50:09.679Z,22.55
